createdAt,value
2018-05-17T00:00:45.125Z,5.78
2018-05-17T00:03:12.641Z,6.57
2018-05-17T00:05:41.749Z,6.28
2018-05-17T00:08:09.276Z,5.78
2018-05-17T00:10:36.765Z,5.65
2018-05-17T00:13:04.405Z,5.93
2018-05-17T00:15:31.975Z,6.18
2018-05-17T00:18:00.259Z,6.03
2018-05-17T00:20:29.246Z,6.32
2018-05-17T00:22:57.798Z,5.68
2018-05-17T00:25:26.140Z,5.43
2018-05-17T00:27:53.766Z,5.95
2018-05-17T00:30:22.106Z,6.97
2018-05-17T00:32:51.038Z,6.00
2018-05-17T00:35:19.317Z,6.07
2018-05-17T00:37:48.333Z,6.62
2018-05-17T00:40:15.845Z,6.47
2018-05-17T00:42:43.355Z,5.30
2018-05-17T00:45:11.160Z,6.55
2018-05-17T00:47:38.699Z,6.50
2018-05-17T00:50:06.177Z,5.97
2018-05-17T00:52:34.475Z,5.53
2018-05-17T00:55:02.141Z,5.87
2018-05-17T00:57:34.406Z,6.20
2018-05-17T01:00:01.928Z,6.40
2018-05-17T01:02:29.586Z,5.95
2018-05-17T01:05:01.290Z,5.97
2018-05-17T01:07:28.812Z,6.22
2018-05-17T01:09:56.311Z,6.20
2018-05-17T01:12:23.902Z,6.30
2018-05-17T01:14:51.415Z,5.93
2018-05-17T01:17:19.078Z,6.20
2018-05-17T01:19:46.597Z,7.10
2018-05-17T01:22:14.121Z,6.77
2018-05-17T01:24:42.391Z,6.77
2018-05-17T01:27:10.672Z,6.80
2018-05-17T01:29:38.956Z,7.28
2018-05-17T01:32:11.900Z,6.90
2018-05-17T01:34:39.402Z,6.75
2018-05-17T01:37:19.737Z,6.60
2018-05-17T01:39:47.243Z,7.15
2018-05-17T01:42:15.939Z,7.20
2018-05-17T01:44:47.541Z,7.60
2018-05-17T01:47:15.057Z,6.80
2018-05-17T01:49:42.574Z,7.20
2018-05-17T01:52:10.853Z,7.17
2018-05-17T01:54:43.393Z,7.37
2018-05-17T01:57:11.002Z,7.50
2018-05-17T01:59:39.292Z,7.30
2018-05-17T02:02:06.998Z,7.40
2018-05-17T02:04:34.936Z,7.63
2018-05-17T02:07:02.429Z,8.00
2018-05-17T02:09:29.953Z,7.17
2018-05-17T02:11:57.527Z,8.43
2018-05-17T02:14:25.090Z,7.63
2018-05-17T02:16:52.656Z,7.87
2018-05-17T02:19:24.373Z,8.53
2018-05-17T02:21:51.893Z,7.30
2018-05-17T02:24:19.446Z,8.13
2018-05-17T02:26:47.005Z,7.97
2018-05-17T02:29:14.566Z,8.77
2018-05-17T02:31:42.079Z,8.53
2018-05-17T02:34:09.569Z,9.13
2018-05-17T02:36:37.089Z,8.70
2018-05-17T02:39:05.398Z,9.30
2018-05-17T02:41:33.087Z,8.30
2018-05-17T02:44:01.122Z,8.53
2018-05-17T02:46:28.644Z,7.80
2018-05-17T02:48:56.938Z,8.40
2018-05-17T02:51:24.437Z,7.33
2018-05-17T02:53:52.674Z,8.13
2018-05-17T02:56:20.170Z,7.78
2018-05-17T02:58:47.691Z,7.43
2018-05-17T03:01:16.187Z,8.80
2018-05-17T03:03:44.105Z,8.27
2018-05-17T03:06:12.191Z,7.50
2018-05-17T03:08:40.483Z,7.87
2018-05-17T03:11:08.751Z,7.32
2018-05-17T03:13:36.260Z,7.60
2018-05-17T03:16:03.757Z,7.70
2018-05-17T03:18:32.094Z,7.63
2018-05-17T03:20:59.591Z,8.40
2018-05-17T03:23:27.941Z,7.83
2018-05-17T03:25:55.450Z,7.97
2018-05-17T03:28:27.806Z,8.50
2018-05-17T03:30:56.091Z,8.03
2018-05-17T03:33:28.216Z,9.73
2018-05-17T03:36:00.362Z,9.50
2018-05-17T03:38:27.864Z,9.50
2018-05-17T03:40:55.390Z,11.10
2018-05-17T03:43:22.947Z,11.50
2018-05-17T03:45:50.473Z,11.57
2018-05-17T03:48:18.576Z,12.00
2018-05-17T03:50:46.611Z,11.40
2018-05-17T03:53:15.206Z,12.20
2018-05-17T03:55:42.738Z,14.43
2018-05-17T03:58:10.433Z,12.10
2018-05-17T04:00:49.935Z,12.07
2018-05-17T04:03:29.463Z,10.93
2018-05-17T04:06:23.698Z,12.00
2018-05-17T04:08:51.953Z,11.40
2018-05-17T04:11:20.242Z,12.23
2018-05-17T04:13:48.648Z,11.97
2018-05-17T04:16:16.879Z,10.83
2018-05-17T04:18:44.407Z,11.87
2018-05-17T04:21:11.915Z,12.20
2018-05-17T04:23:40.416Z,12.10
2018-05-17T04:26:10.109Z,12.33
2018-05-17T04:28:37.630Z,12.80
2018-05-17T04:31:05.137Z,12.57
2018-05-17T04:33:32.669Z,12.50
2018-05-17T04:36:00.937Z,12.60
2018-05-17T04:38:28.448Z,11.83
2018-05-17T04:40:56.025Z,11.80
2018-05-17T04:43:23.570Z,11.50
2018-05-17T04:45:51.144Z,10.93
2018-05-17T04:48:18.729Z,11.27
2018-05-17T04:50:46.376Z,12.30
2018-05-17T04:53:13.889Z,11.37
2018-05-17T04:55:41.529Z,11.43
2018-05-17T04:58:10.775Z,10.63
2018-05-17T05:00:38.310Z,10.50
2018-05-17T05:03:05.821Z,11.87
2018-05-17T05:05:33.337Z,10.27
2018-05-17T05:08:01.256Z,9.47
2018-05-17T05:10:32.729Z,9.87
2018-05-17T05:13:01.014Z,10.27
2018-05-17T05:15:29.290Z,10.23
2018-05-17T05:17:57.594Z,10.63
2018-05-17T05:20:25.110Z,10.50
2018-05-17T05:22:52.676Z,10.87
2018-05-17T05:25:21.344Z,11.30
2018-05-17T05:27:48.848Z,11.70
2018-05-17T05:30:16.350Z,11.27
2018-05-17T05:32:43.917Z,10.80
2018-05-17T05:35:11.431Z,11.27
2018-05-17T05:50:38.970Z,8.30
2018-05-17T05:53:10.622Z,7.43
2018-05-17T05:55:38.901Z,7.90
2018-05-17T05:58:06.396Z,8.17
2018-05-17T06:00:35.938Z,7.10
2018-05-17T06:03:03.441Z,8.03
2018-05-17T06:05:30.949Z,7.20
2018-05-17T06:07:58.469Z,7.63
2018-05-17T06:10:26.047Z,7.37
2018-05-17T06:12:57.534Z,6.40
2018-05-17T06:15:25.869Z,7.65
2018-05-17T06:17:53.365Z,6.50
2018-05-17T06:20:20.883Z,7.00
2018-05-17T06:22:48.403Z,8.03
2018-05-17T06:25:16.705Z,7.17
2018-05-17T06:27:44.225Z,8.05
2018-05-17T06:30:12.503Z,8.15
2018-05-17T06:32:41.062Z,7.47
2018-05-17T06:35:08.563Z,8.90
2018-05-17T06:37:36.860Z,7.30
2018-05-17T06:40:13.334Z,6.33
2018-05-17T06:42:49.030Z,8.10
2018-05-17T06:45:16.545Z,7.70
2018-05-17T06:47:48.226Z,7.60
2018-05-17T06:50:15.734Z,6.97
2018-05-17T06:52:44.631Z,7.90
2018-05-17T06:55:12.149Z,7.30
2018-05-17T06:57:39.694Z,7.25
2018-05-17T07:00:07.229Z,6.97
2018-05-17T07:02:34.726Z,7.27
2018-05-17T07:05:02.321Z,7.43
2018-05-17T07:07:30.588Z,7.40
2018-05-17T07:09:59.446Z,6.93
2018-05-17T07:12:27.292Z,8.00
2018-05-17T07:27:58.713Z,6.90
2018-05-17T07:30:26.619Z,7.50
2018-05-17T07:32:54.117Z,7.03
2018-05-17T07:35:22.853Z,6.87
2018-05-17T07:37:50.738Z,6.97
2018-05-17T07:40:18.368Z,7.10
2018-05-17T07:42:46.344Z,6.53
2018-05-17T07:45:13.837Z,7.87
2018-05-17T07:47:42.042Z,7.20
2018-05-17T07:50:10.316Z,7.17
2018-05-17T07:52:39.376Z,7.43
2018-05-17T07:55:07.618Z,7.03
2018-05-17T07:57:35.173Z,7.30
2018-05-17T08:00:02.690Z,7.23
2018-05-17T08:02:30.191Z,8.02
2018-05-17T08:04:58.405Z,6.75
2018-05-17T08:07:27.257Z,7.10
2018-05-17T08:09:55.531Z,7.60
2018-05-17T08:12:27.107Z,6.97
2018-05-17T08:14:54.964Z,7.03
2018-05-17T08:17:22.497Z,7.30
2018-05-17T08:19:50.011Z,6.00
2018-05-17T08:22:17.517Z,6.80
2018-05-17T08:24:45.034Z,5.72
2018-05-17T08:27:12.537Z,6.70
2018-05-17T08:29:40.069Z,6.82
2018-05-17T08:32:07.634Z,6.30
2018-05-17T08:34:35.923Z,6.05
2018-05-17T08:37:04.204Z,6.60
2018-05-17T08:39:37.313Z,7.25
2018-05-17T08:42:06.470Z,6.10
2018-05-17T08:44:34.017Z,7.10
2018-05-17T08:47:01.576Z,7.50
2018-05-17T08:49:29.621Z,6.60
2018-05-17T08:51:57.286Z,6.87
2018-05-17T08:54:24.833Z,6.35
2018-05-17T08:56:52.794Z,6.40
2018-05-17T08:59:20.310Z,6.05
2018-05-17T09:01:48.742Z,6.40
2018-05-17T09:04:16.238Z,6.43
2018-05-17T09:06:44.837Z,7.00
2018-05-17T09:09:12.397Z,6.95
2018-05-17T09:11:39.891Z,6.60
2018-05-17T09:14:07.422Z,6.60
2018-05-17T09:16:39.763Z,6.70
2018-05-17T09:19:15.350Z,6.37
2018-05-17T09:21:44.422Z,5.72
2018-05-17T09:24:11.930Z,6.60
2018-05-17T09:26:39.443Z,6.12
2018-05-17T09:29:07.800Z,6.12
2018-05-17T09:31:36.169Z,5.62
2018-05-17T09:34:04.533Z,6.28
2018-05-17T09:36:32.063Z,6.20
2018-05-17T09:39:00.704Z,6.35
2018-05-17T09:41:28.307Z,6.07
2018-05-17T09:43:55.864Z,6.20
2018-05-17T09:46:24.202Z,6.28
2018-05-17T09:48:51.706Z,5.43
2018-05-17T09:51:28.646Z,7.65
2018-05-17T09:53:56.180Z,6.30
2018-05-17T09:56:23.753Z,6.72
2018-05-17T09:58:51.425Z,6.03
2018-05-17T10:01:19.050Z,5.90
2018-05-17T10:03:46.556Z,6.72
2018-05-17T10:06:14.065Z,6.40
2018-05-17T10:08:41.848Z,6.18
2018-05-17T10:11:09.354Z,5.72
2018-05-17T10:26:41.036Z,8.32
2018-05-17T10:29:09.188Z,8.48
2018-05-17T10:31:37.467Z,7.87
2018-05-17T10:34:05.788Z,8.02
2018-05-17T10:36:33.328Z,7.40
2018-05-17T10:39:00.873Z,6.70
2018-05-17T10:41:28.472Z,7.62
2018-05-17T10:43:56.065Z,7.57
2018-05-17T10:46:23.670Z,7.57
2018-05-17T10:48:51.305Z,7.35
2018-05-17T10:51:19.523Z,6.47
2018-05-17T10:53:47.033Z,7.60
2018-05-17T10:56:15.324Z,7.85
2018-05-17T10:58:43.601Z,8.55
2018-05-17T11:01:11.134Z,8.73
2018-05-17T11:03:38.646Z,9.60
2018-05-17T11:06:06.170Z,8.38
2018-05-17T11:08:34.445Z,9.45
2018-05-17T11:11:02.757Z,8.32
2018-05-17T11:13:30.460Z,9.38
2018-05-17T11:15:58.000Z,9.30
2018-05-17T11:18:25.493Z,8.88
2018-05-17T11:20:53.029Z,9.82
2018-05-17T11:23:21.563Z,9.68
2018-05-17T11:25:49.169Z,9.75
2018-05-17T11:28:16.851Z,9.05
2018-05-17T11:30:44.381Z,9.05
2018-05-17T11:33:11.908Z,8.02
2018-05-17T11:35:40.159Z,8.40
2018-05-17T11:38:08.451Z,9.32
2018-05-17T11:40:36.763Z,8.85
2018-05-17T11:43:04.324Z,8.82
2018-05-17T11:45:31.840Z,9.13
2018-05-17T11:48:00.133Z,8.48
2018-05-17T11:50:27.735Z,8.60
2018-05-17T11:52:56.585Z,8.65
2018-05-17T11:55:24.722Z,7.75
2018-05-17T11:57:52.950Z,8.20
2018-05-17T12:00:20.824Z,7.57
2018-05-17T12:02:52.764Z,6.68
2018-05-17T12:05:20.307Z,7.45
2018-05-17T12:07:48.574Z,7.45
2018-05-17T12:10:16.109Z,7.95
2018-05-17T12:12:43.612Z,7.90
2018-05-17T12:15:16.040Z,6.60
2018-05-17T12:17:43.569Z,7.37
2018-05-17T12:20:15.304Z,6.45
2018-05-17T12:22:42.829Z,7.60
2018-05-17T12:25:10.337Z,7.68
2018-05-17T12:27:37.850Z,7.10
2018-05-17T12:30:05.346Z,7.00
2018-05-17T12:32:36.694Z,8.48
2018-05-17T12:35:04.205Z,7.57
2018-05-17T12:37:31.817Z,7.95
2018-05-17T12:40:03.402Z,7.25
2018-05-17T12:42:30.935Z,6.95
2018-05-17T12:45:02.294Z,6.55
2018-05-17T12:47:29.905Z,6.55
2018-05-17T12:49:57.421Z,7.07
2018-05-17T12:52:25.334Z,6.07
2018-05-17T12:54:52.841Z,6.37
2018-05-17T12:57:25.201Z,6.35
2018-05-17T12:59:53.004Z,6.97
2018-05-17T13:02:21.238Z,6.43
2018-05-17T13:04:48.760Z,6.20
2018-05-17T13:07:16.269Z,6.93
2018-05-17T13:09:43.785Z,7.37
2018-05-17T13:12:11.372Z,6.85
2018-05-17T13:14:39.443Z,6.20
2018-05-17T13:17:07.750Z,6.20
2018-05-17T13:19:35.733Z,7.22
2018-05-17T13:22:07.508Z,6.97
2018-05-17T13:24:35.494Z,6.72
2018-05-17T13:27:03.065Z,6.70
2018-05-17T13:29:31.335Z,6.85
2018-05-17T13:31:58.899Z,6.62
2018-05-17T13:34:27.185Z,6.90
2018-05-17T13:36:55.488Z,6.72
2018-05-17T13:39:22.993Z,6.57
2018-05-17T13:41:51.146Z,7.10
2018-05-17T13:44:19.275Z,6.37
2018-05-17T13:46:47.765Z,6.25
2018-05-17T13:49:15.391Z,6.40
2018-05-17T13:51:42.879Z,6.25
2018-05-17T13:54:11.157Z,6.00
2018-05-17T13:56:39.725Z,5.70
2018-05-17T13:59:12.173Z,5.80
2018-05-17T14:01:44.446Z,5.87
2018-05-17T14:04:15.939Z,6.32
2018-05-17T14:06:43.447Z,6.40
2018-05-17T14:09:10.964Z,6.03
2018-05-17T14:11:38.482Z,6.05
2018-05-17T14:14:06.009Z,5.85
2018-05-17T14:16:33.505Z,5.90
2018-05-17T14:19:01.431Z,5.95
2018-05-17T14:21:29.807Z,6.05
2018-05-17T14:23:57.359Z,6.10
2018-05-17T14:26:24.922Z,6.55
2018-05-17T14:28:52.451Z,6.50
2018-05-17T14:31:21.305Z,6.40
2018-05-17T14:33:48.824Z,5.87
2018-05-17T14:36:16.339Z,6.62
2018-05-17T14:38:44.859Z,6.10
2018-05-17T14:41:13.233Z,5.65
2018-05-17T14:43:41.346Z,6.28
2018-05-17T14:46:08.980Z,6.97
2018-05-17T14:48:41.125Z,6.62
2018-05-17T14:51:09.409Z,6.40
2018-05-17T14:53:37.674Z,6.40
2018-05-17T14:56:05.956Z,7.12
2018-05-17T14:58:34.249Z,7.57
2018-05-17T15:01:04.601Z,6.50
2018-05-17T15:03:36.230Z,6.68
2018-05-17T15:06:03.845Z,7.45
2018-05-17T15:08:31.494Z,7.22
2018-05-17T15:10:59.344Z,7.00
2018-05-17T15:13:26.584Z,7.43
2018-05-17T15:15:54.108Z,7.07
2018-05-17T15:18:22.421Z,7.37
2018-05-17T15:20:49.930Z,6.10
2018-05-17T15:23:17.457Z,6.00
2018-05-17T15:25:45.422Z,5.75
2018-05-17T15:28:13.320Z,6.40
2018-05-17T15:30:41.641Z,5.93
2018-05-17T15:33:09.150Z,6.30
2018-05-17T15:35:36.686Z,6.10
2018-05-17T15:38:04.284Z,5.70
2018-05-17T15:40:32.494Z,5.62
2018-05-17T15:42:59.995Z,6.03
2018-05-17T15:45:27.533Z,5.72
2018-05-17T15:47:55.055Z,6.25
2018-05-17T15:50:23.352Z,6.22
2018-05-17T15:52:50.902Z,6.57
2018-05-17T15:55:19.167Z,6.28
2018-05-17T15:57:47.592Z,6.72
2018-05-17T16:00:16.010Z,5.70
2018-05-17T16:02:44.005Z,6.00
2018-05-17T16:05:12.285Z,5.75
2018-05-17T16:07:40.585Z,6.80
2018-05-17T16:10:08.106Z,5.97
2018-05-17T16:12:36.395Z,6.60
2018-05-17T16:15:08.950Z,6.85
2018-05-17T16:17:36.985Z,6.60
2018-05-17T16:20:08.578Z,6.80
2018-05-17T16:22:36.137Z,7.45
2018-05-17T16:25:03.652Z,6.85
2018-05-17T16:27:31.170Z,7.30
2018-05-17T16:29:59.868Z,7.25
2018-05-17T16:32:28.935Z,6.90
2018-05-17T16:34:56.537Z,8.10
2018-05-17T16:37:24.090Z,7.25
2018-05-17T16:39:51.698Z,7.05
2018-05-17T16:42:26.474Z,6.95
2018-05-17T16:44:54.768Z,6.72
2018-05-17T16:47:25.930Z,6.82
2018-05-17T16:49:53.480Z,6.95
2018-05-17T16:52:21.043Z,6.90
2018-05-17T16:54:48.606Z,7.30
2018-05-17T16:57:16.109Z,8.05
2018-05-17T16:59:43.628Z,7.80
2018-05-17T17:02:15.061Z,7.18
2018-05-17T17:04:42.877Z,7.12
2018-05-17T17:07:10.399Z,7.40
2018-05-17T17:09:37.965Z,8.18
2018-05-17T17:12:05.495Z,8.15
2018-05-17T17:14:33.980Z,8.13
2018-05-17T17:17:02.177Z,8.55
2018-05-17T17:19:30.426Z,8.27
2018-05-17T17:21:58.710Z,8.10
2018-05-17T17:24:26.229Z,8.43
2018-05-17T17:26:54.026Z,7.80
2018-05-17T17:29:21.538Z,8.52
2018-05-17T17:31:49.094Z,7.78
2018-05-17T17:34:16.701Z,9.02
2018-05-17T17:36:44.200Z,7.62
2018-05-17T17:39:11.706Z,8.48
2018-05-17T17:41:40.034Z,8.70
2018-05-17T17:44:07.593Z,8.73
2018-05-17T17:46:35.176Z,7.57
2018-05-17T17:49:02.918Z,8.18
2018-05-17T17:51:30.421Z,8.55
2018-05-17T17:53:57.966Z,8.18
2018-05-17T17:56:25.611Z,8.00
2018-05-17T17:58:54.012Z,8.07
2018-05-17T18:01:21.775Z,7.40
2018-05-17T18:03:49.322Z,7.47
2018-05-17T18:06:17.638Z,7.53
2018-05-17T18:08:50.429Z,6.72
2018-05-17T18:11:18.697Z,7.18
2018-05-17T18:13:46.992Z,7.05
2018-05-17T18:16:17.162Z,7.82
2018-05-17T18:18:44.693Z,7.20
2018-05-17T18:21:12.257Z,7.93
2018-05-17T18:23:39.802Z,8.02
2018-05-17T18:26:07.330Z,7.93
2018-05-17T18:28:35.953Z,7.57
2018-05-17T18:31:04.030Z,7.20
2018-05-17T18:33:31.553Z,7.22
2018-05-17T18:36:00.545Z,8.60
2018-05-17T18:38:29.467Z,7.65
2018-05-17T18:40:56.977Z,7.32
2018-05-17T18:43:24.494Z,7.00
2018-05-17T18:45:52.367Z,8.45
2018-05-17T18:48:19.917Z,7.57
2018-05-17T18:50:47.438Z,7.47
2018-05-17T18:53:16.058Z,7.47
2018-05-17T18:55:43.617Z,7.32
2018-05-17T18:58:11.222Z,7.78
2018-05-17T19:00:39.468Z,8.30
2018-05-17T19:03:06.990Z,7.72
2018-05-17T19:05:35.270Z,7.50
2018-05-17T19:08:03.209Z,7.70
2018-05-17T19:10:30.718Z,8.27
2018-05-17T19:12:58.248Z,7.65
2018-05-17T19:15:26.588Z,7.32
2018-05-17T19:17:54.149Z,7.45
2018-05-17T19:20:21.773Z,6.97
2018-05-17T19:22:49.215Z,8.77
2018-05-17T19:25:16.767Z,10.15
2018-05-17T19:27:45.055Z,7.00
2018-05-17T19:30:12.576Z,7.20
2018-05-17T19:32:40.100Z,7.47
2018-05-17T19:48:12.708Z,9.55
2018-05-17T19:50:40.245Z,10.18
2018-05-17T19:53:07.764Z,7.57
2018-05-17T19:55:35.300Z,7.25
2018-05-17T19:58:03.603Z,8.15
2018-05-17T20:00:31.114Z,16.15
2018-05-17T20:02:58.631Z,7.55
2018-05-17T20:05:26.144Z,7.25
2018-05-17T20:07:53.653Z,7.45
2018-05-17T20:10:21.164Z,7.68
2018-05-17T20:12:53.185Z,7.32
2018-05-17T20:15:20.698Z,6.72
2018-05-17T20:17:49.471Z,7.20
2018-05-17T20:20:16.982Z,7.20
2018-05-17T20:22:45.421Z,7.25
2018-05-17T20:25:13.747Z,6.60
2018-05-17T20:27:41.263Z,9.82
2018-05-17T20:30:09.540Z,8.75
2018-05-17T20:32:37.865Z,8.18
2018-05-17T20:35:05.397Z,6.47
2018-05-17T20:37:32.901Z,6.85
2018-05-17T20:40:00.434Z,6.18
2018-05-17T20:42:28.739Z,6.03
2018-05-17T20:44:57.053Z,7.15
2018-05-17T20:47:29.313Z,6.78
2018-05-17T20:50:00.742Z,6.87
2018-05-17T20:52:28.317Z,6.97
2018-05-17T20:54:56.923Z,7.20
2018-05-17T20:57:25.356Z,6.93
2018-05-17T20:59:52.882Z,6.10
2018-05-17T21:02:24.572Z,6.22
2018-05-17T21:04:52.133Z,6.78
2018-05-17T21:07:19.641Z,7.18
2018-05-17T21:09:47.962Z,6.72
2018-05-17T21:12:15.490Z,7.40
2018-05-17T21:14:43.007Z,7.30
2018-05-17T21:17:10.529Z,7.40
2018-05-17T21:19:38.910Z,6.68
2018-05-17T21:22:06.421Z,7.03
2018-05-17T21:24:34.013Z,6.10
2018-05-17T21:27:01.534Z,6.43
2018-05-17T21:29:33.865Z,6.60
2018-05-17T21:32:02.500Z,6.90
2018-05-17T21:34:30.772Z,7.45
2018-05-17T21:36:58.296Z,7.03
2018-05-17T21:39:25.841Z,6.47
2018-05-17T21:41:53.373Z,11.93
2018-05-17T21:44:21.716Z,6.55
2018-05-17T21:46:49.233Z,6.18
2018-05-17T21:49:17.079Z,6.45
2018-05-17T21:51:44.580Z,5.97
2018-05-17T21:54:12.181Z,5.90
2018-05-17T21:56:40.473Z,5.60
2018-05-17T21:59:09.021Z,6.05
2018-05-17T22:01:36.524Z,6.90
2018-05-17T22:04:04.044Z,5.70
2018-05-17T22:06:31.544Z,6.07
2018-05-17T22:08:59.066Z,6.17
2018-05-17T22:11:27.386Z,5.62
2018-05-17T22:13:54.877Z,5.80
2018-05-17T22:16:22.400Z,5.40
2018-05-17T22:18:49.982Z,5.87
2018-05-17T22:21:21.353Z,6.32
2018-05-17T22:23:49.226Z,6.67
2018-05-17T22:26:16.932Z,5.50
2018-05-17T22:28:48.357Z,6.45
2018-05-17T22:44:16.500Z,6.37
2018-05-17T22:46:44.007Z,6.10
2018-05-17T22:49:11.534Z,6.13
2018-05-17T22:51:39.069Z,7.20
2018-05-17T22:54:06.602Z,6.53
2018-05-17T22:56:46.191Z,6.27
2018-05-17T22:59:13.714Z,6.30
2018-05-17T23:01:41.233Z,6.10
2018-05-17T23:04:09.513Z,6.10
2018-05-17T23:06:38.475Z,6.80
2018-05-17T23:09:05.982Z,5.60
2018-05-17T23:11:33.788Z,6.03
2018-05-17T23:14:02.091Z,5.87
2018-05-17T23:16:30.842Z,6.32
2018-05-17T23:18:58.333Z,5.60
2018-05-17T23:21:25.997Z,6.20
2018-05-17T23:23:53.508Z,6.07
2018-05-17T23:26:21.090Z,5.90
2018-05-17T23:28:48.591Z,6.10
2018-05-17T23:31:16.895Z,6.00
2018-05-17T23:33:44.398Z,6.57
2018-05-17T23:36:11.910Z,6.40
2018-05-17T23:38:39.413Z,6.37
2018-05-17T23:41:18.642Z,6.35
2018-05-17T23:43:46.245Z,7.35
2018-05-17T23:46:14.617Z,7.47
2018-05-17T23:48:42.885Z,7.00
2018-05-17T23:51:11.236Z,7.67
2018-05-17T23:53:38.760Z,6.45
2018-05-17T23:56:06.869Z,6.50
2018-05-17T23:58:34.394Z,6.13
